sensor_id;sensor_type;location;lat;lon;timestamp;pressure;altitude;pressure_sealevel;temperature;humidity
76074;BME280;64776;42.636;24.358;2023-07-30T00:01:23;90220.41;;;13.51;73.69
76074;BME280;64776;42.636;24.358;2023-07-30T00:04:24;90215.78;;;13.46;73.53
76074;BME280;64776;42.636;24.358;2023-07-30T00:07:26;90215.28;;;13.42;74.25
76074;BME280;64776;42.636;24.358;2023-07-30T00:10:27;90218.00;;;13.47;73.98
76074;BME280;64776;42.636;24.358;2023-07-30T00:13:28;90218.22;;;13.44;73.46
76074;BME280;64776;42.636;24.358;2023-07-30T00:16:29;90211.91;;;13.41;73.46
76074;BME280;64776;42.636;24.358;2023-07-30T00:19:29;90207.75;;;13.35;74.15
76074;BME280;64776;42.636;24.358;2023-07-30T00:22:32;90211.13;;;13.30;74.36
76074;BME280;64776;42.636;24.358;2023-07-30T00:25:33;90211.88;;;13.25;74.44
76074;BME280;64776;42.636;24.358;2023-07-30T00:28:35;90208.72;;;13.21;74.65
76074;BME280;64776;42.636;24.358;2023-07-30T00:31:36;90209.19;;;13.14;74.85
76074;BME280;64776;42.636;24.358;2023-07-30T00:34:37;90199.19;;;13.14;74.45
76074;BME280;64776;42.636;24.358;2023-07-30T00:37:39;90204.28;;;13.06;75.29
76074;BME280;64776;42.636;24.358;2023-07-30T00:40:40;90204.00;;;12.99;75.34
76074;BME280;64776;42.636;24.358;2023-07-30T00:43:41;90207.66;;;12.96;75.61
76074;BME280;64776;42.636;24.358;2023-07-30T00:46:41;90207.41;;;12.94;75.36
76074;BME280;64776;42.636;24.358;2023-07-30T00:49:42;90205.69;;;12.96;75.24
76074;BME280;64776;42.636;24.358;2023-07-30T00:52:45;90202.06;;;12.99;75.12
76074;BME280;64776;42.636;24.358;2023-07-30T00:55:45;90195.97;;;12.93;75.33
76074;BME280;64776;42.636;24.358;2023-07-30T00:58:48;90198.84;;;12.73;76.20
76074;BME280;64776;42.636;24.358;2023-07-30T01:01:51;90198.34;;;12.69;76.44
76074;BME280;64776;42.636;24.358;2023-07-30T01:04:52;90195.63;;;12.53;76.95
76074;BME280;64776;42.636;24.358;2023-07-30T01:07:54;90195.31;;;12.40;75.85
76074;BME280;64776;42.636;24.358;2023-07-30T01:10:55;90211.38;;;12.45;77.17
76074;BME280;64776;42.636;24.358;2023-07-30T01:13:58;90203.09;;;12.43;77.41
76074;BME280;64776;42.636;24.358;2023-07-30T01:16:59;90198.50;;;12.44;77.39
76074;BME280;64776;42.636;24.358;2023-07-30T01:20:00;90192.88;;;12.36;76.90
76074;BME280;64776;42.636;24.358;2023-07-30T01:23:02;90195.75;;;12.27;77.25
76074;BME280;64776;42.636;24.358;2023-07-30T01:26:08;90193.84;;;12.39;77.16
76074;BME280;64776;42.636;24.358;2023-07-30T01:29:12;90201.84;;;12.33;77.15
76074;BME280;64776;42.636;24.358;2023-07-30T01:32:15;90200.84;;;12.31;77.43
76074;BME280;64776;42.636;24.358;2023-07-30T01:35:18;90198.44;;;12.33;77.34
76074;BME280;64776;42.636;24.358;2023-07-30T01:38:22;90197.75;;;12.38;77.16
76074;BME280;64776;42.636;24.358;2023-07-30T01:41:23;90198.97;;;12.42;77.13
76074;BME280;64776;42.636;24.358;2023-07-30T01:44:24;90202.09;;;12.35;77.18
76074;BME280;64776;42.636;24.358;2023-07-30T01:47:25;90199.91;;;12.28;77.34
76074;BME280;64776;42.636;24.358;2023-07-30T01:50:25;90201.59;;;12.31;77.03
76074;BME280;64776;42.636;24.358;2023-07-30T01:53:28;90192.13;;;12.30;77.02
76074;BME280;64776;42.636;24.358;2023-07-30T01:56:28;90191.41;;;12.35;77.28
76074;BME280;64776;42.636;24.358;2023-07-30T01:59:29;90204.53;;;12.33;76.81
76074;BME280;64776;42.636;24.358;2023-07-30T02:02:30;90193.09;;;12.33;76.65
76074;BME280;64776;42.636;24.358;2023-07-30T02:05:31;90196.72;;;12.24;76.48
76074;BME280;64776;42.636;24.358;2023-07-30T02:08:33;90200.09;;;12.19;76.63
76074;BME280;64776;42.636;24.358;2023-07-30T02:11:34;90197.84;;;12.12;76.97
76074;BME280;64776;42.636;24.358;2023-07-30T02:14:35;90199.31;;;12.07;77.11
76074;BME280;64776;42.636;24.358;2023-07-30T02:17:35;90201.19;;;12.01;77.03
76074;BME280;64776;42.636;24.358;2023-07-30T02:20:36;90200.50;;;12.01;77.06
76074;BME280;64776;42.636;24.358;2023-07-30T02:23:38;90202.91;;;11.99;76.96
76074;BME280;64776;42.636;24.358;2023-07-30T02:26:39;90205.75;;;11.90;77.81
76074;BME280;64776;42.636;24.358;2023-07-30T02:29:40;90206.69;;;11.81;77.80
76074;BME280;64776;42.636;24.358;2023-07-30T02:32:41;90206.91;;;11.78;77.91
76074;BME280;64776;42.636;24.358;2023-07-30T02:35:43;90206.66;;;11.76;78.04
76074;BME280;64776;42.636;24.358;2023-07-30T02:38:45;90203.28;;;11.81;77.63
76074;BME280;64776;42.636;24.358;2023-07-30T02:41:46;90203.81;;;11.85;77.55
76074;BME280;64776;42.636;24.358;2023-07-30T02:44:46;90197.91;;;11.75;79.29
76074;BME280;64776;42.636;24.358;2023-07-30T02:47:47;90202.25;;;11.73;78.71
76074;BME280;64776;42.636;24.358;2023-07-30T02:50:48;90209.56;;;11.72;79.44
76074;BME280;64776;42.636;24.358;2023-07-30T02:53:57;90204.16;;;11.67;78.53
76074;BME280;64776;42.636;24.358;2023-07-30T02:56:58;90206.03;;;11.61;78.14
76074;BME280;64776;42.636;24.358;2023-07-30T02:59:59;90207.41;;;11.51;79.16
76074;BME280;64776;42.636;24.358;2023-07-30T03:02:59;90216.16;;;11.51;79.46
76074;BME280;64776;42.636;24.358;2023-07-30T03:06:04;90219.06;;;11.48;78.76
76074;BME280;64776;42.636;24.358;2023-07-30T03:09:06;90213.97;;;11.50;78.39
76074;BME280;64776;42.636;24.358;2023-07-30T03:12:07;90214.44;;;11.48;78.70
76074;BME280;64776;42.636;24.358;2023-07-30T03:15:09;90219.84;;;11.54;78.56
76074;BME280;64776;42.636;24.358;2023-07-30T03:18:10;90220.56;;;11.54;78.80
76074;BME280;64776;42.636;24.358;2023-07-30T03:21:10;90219.53;;;11.46;78.85
76074;BME280;64776;42.636;24.358;2023-07-30T03:24:12;90213.88;;;11.38;78.87
76074;BME280;64776;42.636;24.358;2023-07-30T03:27:13;90217.06;;;11.42;78.94
76074;BME280;64776;42.636;24.358;2023-07-30T03:30:14;90215.88;;;11.43;78.86
76074;BME280;64776;42.636;24.358;2023-07-30T03:33:15;90219.50;;;11.40;79.10
76074;BME280;64776;42.636;24.358;2023-07-30T03:36:17;90212.16;;;11.35;80.02
76074;BME280;64776;42.636;24.358;2023-07-30T03:39:19;90220.41;;;11.37;79.96
76074;BME280;64776;42.636;24.358;2023-07-30T03:42:20;90214.88;;;11.41;79.61
76074;BME280;64776;42.636;24.358;2023-07-30T03:45:21;90218.97;;;11.36;79.52
76074;BME280;64776;42.636;24.358;2023-07-30T03:48:22;90216.47;;;11.27;80.20
76074;BME280;64776;42.636;24.358;2023-07-30T03:51:23;90217.94;;;11.28;79.55
76074;BME280;64776;42.636;24.358;2023-07-30T03:54:25;90218.44;;;11.32;80.09
76074;BME280;64776;42.636;24.358;2023-07-30T03:57:26;90218.97;;;11.36;80.48
76074;BME280;64776;42.636;24.358;2023-07-30T04:00:27;90223.31;;;11.34;80.14
76074;BME280;64776;42.636;24.358;2023-07-30T04:03:27;90221.38;;;11.34;80.46
76074;BME280;64776;42.636;24.358;2023-07-30T04:06:28;90218.41;;;11.27;80.19
76074;BME280;64776;42.636;24.358;2023-07-30T04:09:30;90226.22;;;11.30;80.47
76074;BME280;64776;42.636;24.358;2023-07-30T04:12:31;90218.72;;;11.34;79.55
76074;BME280;64776;42.636;24.358;2023-07-30T04:15:32;90226.81;;;11.45;79.86
76074;BME280;64776;42.636;24.358;2023-07-30T04:18:33;90223.69;;;11.53;80.20
76074;BME280;64776;42.636;24.358;2023-07-30T04:21:33;90223.31;;;11.65;80.25
76074;BME280;64776;42.636;24.358;2023-07-30T04:24:35;90226.31;;;11.73;80.29
76074;BME280;64776;42.636;24.358;2023-07-30T04:27:36;90223.97;;;11.86;79.26
76074;BME280;64776;42.636;24.358;2023-07-30T04:30:38;90226.25;;;11.98;80.18
76074;BME280;64776;42.636;24.358;2023-07-30T04:33:38;90224.34;;;12.10;79.73
76074;BME280;64776;42.636;24.358;2023-07-30T04:36:39;90226.09;;;12.18;79.29
76074;BME280;64776;42.636;24.358;2023-07-30T04:39:41;90225.44;;;12.29;78.76
76074;BME280;64776;42.636;24.358;2023-07-30T04:42:42;90225.50;;;12.40;78.93
76074;BME280;64776;42.636;24.358;2023-07-30T04:45:43;90228.94;;;12.52;79.37
76074;BME280;64776;42.636;24.358;2023-07-30T04:48:44;90225.13;;;12.69;79.00
76074;BME280;64776;42.636;24.358;2023-07-30T04:51:45;90226.13;;;12.83;78.36
76074;BME280;64776;42.636;24.358;2023-07-30T04:54:47;90222.78;;;13.04;77.80
76074;BME280;64776;42.636;24.358;2023-07-30T04:57:48;90221.13;;;13.24;77.40
76074;BME280;64776;42.636;24.358;2023-07-30T05:00:48;90215.78;;;13.40;76.75
76074;BME280;64776;42.636;24.358;2023-07-30T05:03:49;90213.59;;;13.50;76.77
76074;BME280;64776;42.636;24.358;2023-07-30T05:06:50;90221.66;;;13.72;76.24
76074;BME280;64776;42.636;24.358;2023-07-30T05:09:52;90219.19;;;13.96;75.94
76074;BME280;64776;42.636;24.358;2023-07-30T05:12:53;90224.00;;;14.25;74.59
76074;BME280;64776;42.636;24.358;2023-07-30T05:15:54;90220.78;;;14.54;73.67
76074;BME280;64776;42.636;24.358;2023-07-30T05:18:55;90219.94;;;14.82;73.49
76074;BME280;64776;42.636;24.358;2023-07-30T05:21:55;90220.06;;;15.06;73.11
76074;BME280;64776;42.636;24.358;2023-07-30T05:24:58;90213.81;;;15.27;72.11
76074;BME280;64776;42.636;24.358;2023-07-30T05:27:58;90218.78;;;15.59;71.50
76074;BME280;64776;42.636;24.358;2023-07-30T05:30:59;90222.22;;;15.89;71.38
76074;BME280;64776;42.636;24.358;2023-07-30T05:34:00;90215.53;;;16.25;70.38
76074;BME280;64776;42.636;24.358;2023-07-30T05:37:01;90209.16;;;16.52;68.97
76074;BME280;64776;42.636;24.358;2023-07-30T05:40:04;90209.56;;;16.80;68.14
76074;BME280;64776;42.636;24.358;2023-07-30T05:43:05;90215.84;;;17.07;66.59
76074;BME280;64776;42.636;24.358;2023-07-30T05:46:06;90212.06;;;17.34;65.49
76074;BME280;64776;42.636;24.358;2023-07-30T05:49:07;90202.03;;;17.53;64.19
76074;BME280;64776;42.636;24.358;2023-07-30T05:52:08;90208.94;;;17.80;62.51
76074;BME280;64776;42.636;24.358;2023-07-30T05:55:11;90210.06;;;18.04;61.42
76074;BME280;64776;42.636;24.358;2023-07-30T05:58:11;90212.00;;;18.35;61.71
76074;BME280;64776;42.636;24.358;2023-07-30T06:01:12;90204.78;;;18.56;60.07
76074;BME280;64776;42.636;24.358;2023-07-30T06:04:13;90204.56;;;18.80;60.16
76074;BME280;64776;42.636;24.358;2023-07-30T06:07:15;90204.03;;;19.08;59.44
76074;BME280;64776;42.636;24.358;2023-07-30T06:10:17;90204.91;;;19.23;58.93
76074;BME280;64776;42.636;24.358;2023-07-30T06:13:18;90198.22;;;19.51;58.78
76074;BME280;64776;42.636;24.358;2023-07-30T06:16:19;90196.06;;;19.70;58.11
76074;BME280;64776;42.636;24.358;2023-07-30T06:19:20;90195.03;;;19.93;57.50
76074;BME280;64776;42.636;24.358;2023-07-30T06:22:20;90195.84;;;20.22;57.43
76074;BME280;64776;42.636;24.358;2023-07-30T06:25:23;90196.28;;;20.54;56.88
76074;BME280;64776;42.636;24.358;2023-07-30T06:28:23;90198.03;;;20.80;56.62
76074;BME280;64776;42.636;24.358;2023-07-30T06:31:24;90197.16;;;21.13;53.92
76074;BME280;64776;42.636;24.358;2023-07-30T06:34:25;90195.13;;;21.42;53.35
76074;BME280;64776;42.636;24.358;2023-07-30T06:37:26;90194.81;;;21.60;52.77
76074;BME280;64776;42.636;24.358;2023-07-30T06:40:28;90192.53;;;21.87;52.67
76074;BME280;64776;42.636;24.358;2023-07-30T06:43:29;90190.63;;;22.25;48.47
76074;BME280;64776;42.636;24.358;2023-07-30T06:46:29;90186.63;;;22.34;47.04
76074;BME280;64776;42.636;24.358;2023-07-30T06:49:30;90186.25;;;22.67;47.89
76074;BME280;64776;42.636;24.358;2023-07-30T06:52:31;90181.00;;;22.85;47.14
76074;BME280;64776;42.636;24.358;2023-07-30T06:55:33;90171.69;;;23.03;47.51
76074;BME280;64776;42.636;24.358;2023-07-30T06:58:34;90170.38;;;23.19;41.54
76074;BME280;64776;42.636;24.358;2023-07-30T07:01:35;90174.50;;;23.35;40.63
76074;BME280;64776;42.636;24.358;2023-07-30T07:04:35;90169.00;;;23.50;41.69
76074;BME280;64776;42.636;24.358;2023-07-30T07:07:36;90174.50;;;23.75;41.31
76074;BME280;64776;42.636;24.358;2023-07-30T07:10:38;90171.88;;;23.92;42.14
76074;BME280;64776;42.636;24.358;2023-07-30T07:13:39;90161.84;;;24.27;41.06
76074;BME280;64776;42.636;24.358;2023-07-30T07:16:40;90167.25;;;24.34;41.03
76074;BME280;64776;42.636;24.358;2023-07-30T07:19:41;90165.22;;;24.59;41.50
76074;BME280;64776;42.636;24.358;2023-07-30T07:22:41;90168.59;;;24.75;40.17
76074;BME280;64776;42.636;24.358;2023-07-30T07:25:45;90168.75;;;24.77;41.02
76074;BME280;64776;42.636;24.358;2023-07-30T07:28:45;90168.91;;;24.79;40.57
76074;BME280;64776;42.636;24.358;2023-07-30T07:31:46;90168.19;;;24.78;40.74
76074;BME280;64776;42.636;24.358;2023-07-30T07:34:47;90167.63;;;24.97;40.78
76074;BME280;64776;42.636;24.358;2023-07-30T07:37:48;90158.66;;;25.21;40.43
76074;BME280;64776;42.636;24.358;2023-07-30T07:40:50;90156.72;;;25.48;39.93
76074;BME280;64776;42.636;24.358;2023-07-30T07:43:51;90159.19;;;25.71;41.79
76074;BME280;64776;42.636;24.358;2023-07-30T07:46:52;90156.81;;;25.84;39.86
76074;BME280;64776;42.636;24.358;2023-07-30T07:49:53;90161.91;;;25.98;40.37
76074;BME280;64776;42.636;24.358;2023-07-30T07:52:53;90153.84;;;26.17;40.50
76074;BME280;64776;42.636;24.358;2023-07-30T07:55:56;90154.63;;;26.36;41.22
76074;BME280;64776;42.636;24.358;2023-07-30T07:58:56;90150.47;;;26.45;39.37
76074;BME280;64776;42.636;24.358;2023-07-30T08:01:57;90147.31;;;26.39;40.45
76074;BME280;64776;42.636;24.358;2023-07-30T08:04:58;90147.22;;;26.66;39.17
76074;BME280;64776;42.636;24.358;2023-07-30T08:07:59;90149.69;;;26.71;39.46
76074;BME280;64776;42.636;24.358;2023-07-30T08:11:06;90135.34;;;26.90;39.02
76074;BME280;64776;42.636;24.358;2023-07-30T08:14:07;90145.44;;;27.06;39.49
76074;BME280;64776;42.636;24.358;2023-07-30T08:17:07;90135.06;;;27.14;38.43
76074;BME280;64776;42.636;24.358;2023-07-30T08:20:09;90144.75;;;27.06;38.90
76074;BME280;64776;42.636;24.358;2023-07-30T08:23:09;90142.25;;;26.81;38.57
76074;BME280;64776;42.636;24.358;2023-07-30T08:26:12;90143.16;;;26.93;38.55
76074;BME280;64776;42.636;24.358;2023-07-30T08:29:12;90138.53;;;27.24;38.08
76074;BME280;64776;42.636;24.358;2023-07-30T08:32:13;90137.38;;;27.66;37.12
76074;BME280;64776;42.636;24.358;2023-07-30T08:35:14;90138.81;;;27.76;36.27
76074;BME280;64776;42.636;24.358;2023-07-30T08:38:15;90135.78;;;27.91;36.54
76074;BME280;64776;42.636;24.358;2023-07-30T08:41:17;90134.31;;;28.09;36.51
76074;BME280;64776;42.636;24.358;2023-07-30T08:44:18;90125.59;;;28.23;35.14
76074;BME280;64776;42.636;24.358;2023-07-30T08:47:19;90117.59;;;28.36;35.86
76074;BME280;64776;42.636;24.358;2023-07-30T08:50:33;90126.91;;;28.62;35.15
76074;BME280;64776;42.636;24.358;2023-07-30T08:53:35;90121.16;;;28.58;35.08
76074;BME280;64776;42.636;24.358;2023-07-30T08:56:37;90123.72;;;28.86;34.14
76074;BME280;64776;42.636;24.358;2023-07-30T08:59:42;90119.63;;;28.97;33.68
76074;BME280;64776;42.636;24.358;2023-07-30T09:02:48;90114.31;;;28.89;33.47
76074;BME280;64776;42.636;24.358;2023-07-30T09:05:50;90114.34;;;28.59;33.05
76074;BME280;64776;42.636;24.358;2023-07-30T09:08:51;90118.09;;;28.54;33.68
76074;BME280;64776;42.636;24.358;2023-07-30T09:11:53;90115.41;;;28.75;33.82
76074;BME280;64776;42.636;24.358;2023-07-30T09:14:55;90118.00;;;29.25;32.40
76074;BME280;64776;42.636;24.358;2023-07-30T09:17:56;90104.66;;;29.10;32.89
76074;BME280;64776;42.636;24.358;2023-07-30T09:20:59;90107.34;;;29.19;32.95
76074;BME280;64776;42.636;24.358;2023-07-30T09:24:02;90101.81;;;29.40;32.90
76074;BME280;64776;42.636;24.358;2023-07-30T09:27:05;90107.75;;;29.58;31.69
76074;BME280;64776;42.636;24.358;2023-07-30T09:30:07;90106.44;;;29.59;33.53
76074;BME280;64776;42.636;24.358;2023-07-30T09:33:07;90100.81;;;29.57;32.48
76074;BME280;64776;42.636;24.358;2023-07-30T09:36:08;90099.66;;;28.96;32.53
76074;BME280;64776;42.636;24.358;2023-07-30T09:39:14;90098.97;;;29.17;34.17
76074;BME280;64776;42.636;24.358;2023-07-30T09:42:17;90095.50;;;29.49;32.02
76074;BME280;64776;42.636;24.358;2023-07-30T09:45:20;90097.38;;;29.68;32.23
76074;BME280;64776;42.636;24.358;2023-07-30T09:48:21;90088.59;;;29.81;31.76
76074;BME280;64776;42.636;24.358;2023-07-30T09:51:23;90087.78;;;29.90;31.77
76074;BME280;64776;42.636;24.358;2023-07-30T09:54:24;90089.00;;;30.10;32.80
76074;BME280;64776;42.636;24.358;2023-07-30T09:57:26;90093.78;;;30.21;31.62
76074;BME280;64776;42.636;24.358;2023-07-30T10:00:28;90083.66;;;30.47;30.13
76074;BME280;64776;42.636;24.358;2023-07-30T10:03:32;90086.06;;;30.41;30.59
76074;BME280;64776;42.636;24.358;2023-07-30T10:06:39;90075.97;;;30.22;30.27
76074;BME280;64776;42.636;24.358;2023-07-30T10:09:43;90073.28;;;29.90;28.61
76074;BME280;64776;42.636;24.358;2023-07-30T10:12:48;90060.59;;;29.40;29.26
76074;BME280;64776;42.636;24.358;2023-07-30T10:15:50;90068.91;;;29.63;29.33
76074;BME280;64776;42.636;24.358;2023-07-30T10:18:55;90063.53;;;29.65;29.11
76074;BME280;64776;42.636;24.358;2023-07-30T10:21:58;90065.50;;;29.53;30.94
76074;BME280;64776;42.636;24.358;2023-07-30T10:25:00;90057.09;;;29.40;30.58
76074;BME280;64776;42.636;24.358;2023-07-30T10:28:02;90055.22;;;29.87;29.53
76074;BME280;64776;42.636;24.358;2023-07-30T10:31:04;90052.19;;;29.71;30.89
76074;BME280;64776;42.636;24.358;2023-07-30T10:34:07;90052.00;;;29.90;27.16
76074;BME280;64776;42.636;24.358;2023-07-30T10:37:08;90048.44;;;30.22;28.17
76074;BME280;64776;42.636;24.358;2023-07-30T10:40:16;90044.59;;;30.74;28.82
76074;BME280;64776;42.636;24.358;2023-07-30T10:43:18;90044.72;;;30.76;29.03
76074;BME280;64776;42.636;24.358;2023-07-30T10:46:19;90049.97;;;30.25;30.15
76074;BME280;64776;42.636;24.358;2023-07-30T10:49:20;90046.00;;;29.82;31.01
76074;BME280;64776;42.636;24.358;2023-07-30T10:52:24;90046.03;;;29.94;31.55
76074;BME280;64776;42.636;24.358;2023-07-30T10:55:29;90042.44;;;30.61;31.27
76074;BME280;64776;42.636;24.358;2023-07-30T10:58:32;90025.34;;;31.10;30.06
76074;BME280;64776;42.636;24.358;2023-07-30T11:01:36;90027.81;;;31.29;27.71
76074;BME280;64776;42.636;24.358;2023-07-30T11:04:37;90032.19;;;31.71;28.82
76074;BME280;64776;42.636;24.358;2023-07-30T11:07:38;90024.66;;;32.11;24.81
76074;BME280;64776;42.636;24.358;2023-07-30T11:10:43;90021.59;;;31.54;24.08
76074;BME280;64776;42.636;24.358;2023-07-30T11:13:46;90017.69;;;31.09;24.19
76074;BME280;64776;42.636;24.358;2023-07-30T11:16:48;90029.09;;;31.40;24.39
76074;BME280;64776;42.636;24.358;2023-07-30T11:19:49;90019.13;;;31.10;23.10
76074;BME280;64776;42.636;24.358;2023-07-30T11:22:50;90011.16;;;30.91;24.68
76074;BME280;64776;42.636;24.358;2023-07-30T11:25:51;90019.22;;;30.17;25.67
76074;BME280;64776;42.636;24.358;2023-07-30T11:28:53;90018.22;;;30.94;24.41
76074;BME280;64776;42.636;24.358;2023-07-30T11:31:56;90007.16;;;31.30;23.08
76074;BME280;64776;42.636;24.358;2023-07-30T11:34:57;90005.66;;;31.78;23.82
76074;BME280;64776;42.636;24.358;2023-07-30T11:37:58;90014.50;;;31.76;26.62
76074;BME280;64776;42.636;24.358;2023-07-30T11:40:59;90007.06;;;31.28;28.23
76074;BME280;64776;42.636;24.358;2023-07-30T11:44:02;90007.06;;;30.92;28.64
76074;BME280;64776;42.636;24.358;2023-07-30T11:47:03;90011.34;;;30.35;27.98
76074;BME280;64776;42.636;24.358;2023-07-30T11:50:05;90011.56;;;30.16;28.22
76074;BME280;64776;42.636;24.358;2023-07-30T11:53:05;89997.56;;;30.58;28.96
76074;BME280;64776;42.636;24.358;2023-07-30T11:56:06;90000.44;;;30.48;29.48
76074;BME280;64776;42.636;24.358;2023-07-30T11:59:08;90009.34;;;29.68;31.43
76074;BME280;64776;42.636;24.358;2023-07-30T12:02:17;90005.47;;;29.38;31.52
76074;BME280;64776;42.636;24.358;2023-07-30T12:05:17;89996.38;;;29.47;32.85
76074;BME280;64776;42.636;24.358;2023-07-30T12:08:25;89991.88;;;29.52;32.21
76074;BME280;64776;42.636;24.358;2023-07-30T12:11:27;89986.16;;;29.71;31.27
76074;BME280;64776;42.636;24.358;2023-07-30T12:14:43;89979.97;;;30.51;30.52
76074;BME280;64776;42.636;24.358;2023-07-30T12:17:44;89978.56;;;31.24;29.22
76074;BME280;64776;42.636;24.358;2023-07-30T12:20:45;89969.78;;;31.02;28.59
76074;BME280;64776;42.636;24.358;2023-07-30T12:23:46;89975.41;;;30.44;29.28
76074;BME280;64776;42.636;24.358;2023-07-30T12:26:46;89978.91;;;30.10;29.00
76074;BME280;64776;42.636;24.358;2023-07-30T12:29:48;89974.47;;;30.17;29.40
76074;BME280;64776;42.636;24.358;2023-07-30T12:32:49;89960.25;;;30.69;28.55
76074;BME280;64776;42.636;24.358;2023-07-30T12:35:50;89960.75;;;30.77;28.71
76074;BME280;64776;42.636;24.358;2023-07-30T12:38:51;89958.47;;;30.73;28.86
76074;BME280;64776;42.636;24.358;2023-07-30T12:41:52;89961.06;;;30.11;29.41
76074;BME280;64776;42.636;24.358;2023-07-30T12:44:54;89959.34;;;29.60;30.31
76074;BME280;64776;42.636;24.358;2023-07-30T12:47:55;89959.94;;;29.14;30.55
76074;BME280;64776;42.636;24.358;2023-07-30T12:50:56;89948.06;;;29.21;30.05
76074;BME280;64776;42.636;24.358;2023-07-30T12:53:57;89944.66;;;30.13;29.72
76074;BME280;64776;42.636;24.358;2023-07-30T12:56:57;89940.16;;;30.66;28.65
76074;BME280;64776;42.636;24.358;2023-07-30T13:00:00;89933.53;;;30.11;29.42
76074;BME280;64776;42.636;24.358;2023-07-30T13:03:01;89932.59;;;30.07;28.94
76074;BME280;64776;42.636;24.358;2023-07-30T13:06:02;89928.63;;;30.21;28.53
76074;BME280;64776;42.636;24.358;2023-07-30T13:09:03;89936.22;;;29.86;29.17
76074;BME280;64776;42.636;24.358;2023-07-30T13:12:05;89930.22;;;29.90;29.01
76074;BME280;64776;42.636;24.358;2023-07-30T13:15:08;89937.28;;;29.81;29.28
76074;BME280;64776;42.636;24.358;2023-07-30T13:18:10;89935.19;;;29.70;29.76
76074;BME280;64776;42.636;24.358;2023-07-30T13:21:10;89919.88;;;29.32;29.78
76074;BME280;64776;42.636;24.358;2023-07-30T13:24:11;89919.19;;;28.99;30.86
76074;BME280;64776;42.636;24.358;2023-07-30T13:27:12;89917.94;;;29.23;29.87
76074;BME280;64776;42.636;24.358;2023-07-30T13:30:14;89915.91;;;29.24;30.62
76074;BME280;64776;42.636;24.358;2023-07-30T13:33:15;89912.94;;;29.20;29.86
76074;BME280;64776;42.636;24.358;2023-07-30T13:36:16;89909.13;;;29.36;31.64
76074;BME280;64776;42.636;24.358;2023-07-30T13:39:16;89899.00;;;29.85;29.45
76074;BME280;64776;42.636;24.358;2023-07-30T13:42:17;89898.75;;;30.64;29.01
76074;BME280;64776;42.636;24.358;2023-07-30T13:45:19;89892.13;;;30.69;29.03
76074;BME280;64776;42.636;24.358;2023-07-30T13:48:20;89887.19;;;30.42;27.96
76074;BME280;64776;42.636;24.358;2023-07-30T13:51:21;89891.50;;;30.34;28.99
76074;BME280;64776;42.636;24.358;2023-07-30T13:54:22;89884.88;;;30.50;28.87
76074;BME280;64776;42.636;24.358;2023-07-30T13:57:23;89890.94;;;30.61;27.99
76074;BME280;64776;42.636;24.358;2023-07-30T14:00:27;89884.28;;;30.89;28.18
76074;BME280;64776;42.636;24.358;2023-07-30T14:03:27;89883.44;;;30.86;28.28
76074;BME280;64776;42.636;24.358;2023-07-30T14:06:28;89878.53;;;31.10;27.99
76074;BME280;64776;42.636;24.358;2023-07-30T14:09:29;89879.72;;;31.32;27.71
76074;BME280;64776;42.636;24.358;2023-07-30T14:12:30;89876.88;;;31.05;27.27
76074;BME280;64776;42.636;24.358;2023-07-30T14:15:32;89876.41;;;31.47;29.61
76074;BME280;64776;42.636;24.358;2023-07-30T14:18:33;89873.88;;;31.78;29.24
76074;BME280;64776;42.636;24.358;2023-07-30T14:21:34;89869.84;;;32.06;28.50
76074;BME280;64776;42.636;24.358;2023-07-30T14:24:35;89867.03;;;31.27;29.45
76074;BME280;64776;42.636;24.358;2023-07-30T14:27:36;89864.75;;;30.60;30.10
76074;BME280;64776;42.636;24.358;2023-07-30T14:30:38;89863.66;;;30.05;30.80
76074;BME280;64776;42.636;24.358;2023-07-30T14:33:39;89865.50;;;29.89;31.29
76074;BME280;64776;42.636;24.358;2023-07-30T14:36:39;89861.56;;;29.80;30.70
76074;BME280;64776;42.636;24.358;2023-07-30T14:39:40;89851.50;;;29.96;30.73
76074;BME280;64776;42.636;24.358;2023-07-30T14:42:41;89856.47;;;30.11;31.05
76074;BME280;64776;42.636;24.358;2023-07-30T14:45:43;89854.28;;;30.21;31.46
76074;BME280;64776;42.636;24.358;2023-07-30T14:48:44;89850.06;;;29.95;30.89
76074;BME280;64776;42.636;24.358;2023-07-30T14:51:45;89850.06;;;29.72;30.65
76074;BME280;64776;42.636;24.358;2023-07-30T14:54:46;89859.16;;;29.63;31.38
76074;BME280;64776;42.636;24.358;2023-07-30T14:57:46;89853.41;;;29.36;33.01
76074;BME280;64776;42.636;24.358;2023-07-30T15:00:48;89856.91;;;28.80;33.69
76074;BME280;64776;42.636;24.358;2023-07-30T15:03:49;89853.53;;;28.70;34.16
76074;BME280;64776;42.636;24.358;2023-07-30T15:06:50;89858.91;;;28.68;34.27
76074;BME280;64776;42.636;24.358;2023-07-30T15:09:51;89849.34;;;28.69;34.60
76074;BME280;64776;42.636;24.358;2023-07-30T15:12:52;89847.78;;;28.66;34.54
76074;BME280;64776;42.636;24.358;2023-07-30T15:15:54;89847.91;;;28.68;34.51
76074;BME280;64776;42.636;24.358;2023-07-30T15:18:55;89845.56;;;28.53;34.72
76074;BME280;64776;42.636;24.358;2023-07-30T15:21:55;89848.84;;;28.61;34.49
76074;BME280;64776;42.636;24.358;2023-07-30T15:24:56;89847.00;;;28.54;34.83
76074;BME280;64776;42.636;24.358;2023-07-30T15:27:57;89851.34;;;28.57;34.70
76074;BME280;64776;42.636;24.358;2023-07-30T15:30:59;89836.22;;;28.47;34.54
76074;BME280;64776;42.636;24.358;2023-07-30T15:34:00;89846.75;;;28.50;35.17
76074;BME280;64776;42.636;24.358;2023-07-30T15:37:01;89843.25;;;28.38;35.55
76074;BME280;64776;42.636;24.358;2023-07-30T15:40:02;89837.94;;;28.52;34.99
76074;BME280;64776;42.636;24.358;2023-07-30T15:43:03;89837.97;;;28.63;34.88
76074;BME280;64776;42.636;24.358;2023-07-30T15:46:07;89834.63;;;28.65;35.07
76074;BME280;64776;42.636;24.358;2023-07-30T15:49:08;89840.72;;;28.63;35.50